Time;durP1;ratioP1;P1;durP2;ratioP2;P2;SDS_P1;SDS_P2;PMS_P1;PMS_P2;Temp;Humidity;BMP_temperature;BMP_pressure;BME280_temperature;BME280_humidity;BME280_pressure;Samples;Min_cycle;Max_cycle;Signal;HPM_P1;HPM_P2
2023/09/08 02:19:00;;;;;;;;;;;;;;;;;;;;;
2023/09/08 04:01:25;;;;;;;;;;;;;;;13.73;68.17;99937.10;107487;1263;109445;-89
2023/09/08 04:03:54;;;;;;;;;;;;;;;13.72;68.30;99932.41;105678;1264;97107;-89
2023/09/08 04:06:22;;;;;;;;;;;;;;;13.72;68.17;99930.98;106105;1264;107087;-90
2023/09/08 04:08:52;;;;;;;;;;;;;;;13.70;68.22;99932.13;106917;1263;96587;-90
2023/09/08 04:11:23;;;;;;;;;;;;;;;13.69;68.24;99932.59;106516;1268;96537;-89
2023/09/08 04:13:54;;;;;;;;;;;;;;;13.68;68.32;99937.27;105674;1262;109689;-90
2023/09/08 04:16:23;;;;;;;;;;;;;;;13.67;68.36;99936.44;105722;1265;96637;-91
2023/09/08 04:18:51;;;;;;;;;;;;;;;13.67;68.31;99934.69;106268;1264;107568;-91
2023/09/08 04:21:23;;;;;;;;;;;;;;;13.65;68.26;99935.04;105666;1265;96590;-92
2023/09/08 04:23:56;;;;;;;;;;;;;;;13.62;68.40;99932.41;106096;1265;96526;-90
2023/09/08 04:30:23;;;;;;;;;;;;;;;13.62;68.55;99934.36;105730;1267;96626;-91
2023/09/08 04:32:58;;;;;;;;;;;;;;;13.65;68.60;99935.02;105928;1264;107640;-90
2023/09/08 04:35:33;;;;;;;;;;;;;;;13.68;68.58;99931.42;105939;1266;96343;-89
2023/09/08 04:42:39;;;;;;;;;;;;;;;13.69;68.59;99925.83;105704;1268;111270;-89
2023/09/08 04:45:30;;;;;;;;;;;;;;;13.67;68.60;99925.41;105650;1267;96545;-91
2023/09/08 04:47:58;;;;;;;;;;;;;;;13.67;68.67;99923.04;105440;1265;106771;-90
2023/09/08 04:50:27;;;;;;;;;;;;;;;13.72;68.76;99923.30;105244;1270;96546;-91
2023/09/08 04:52:58;;;;;;;;;;;;;;;13.74;68.84;99923.64;105495;1268;96712;-91
2023/09/08 04:55:33;;;;;;;;;;;;;;;13.80;68.81;99922.00;105427;1264;109994;-90
2023/09/08 04:58:11;;;;;;;;;;;;;;;13.86;68.81;99923.88;105388;1266;96522;-90
2023/09/08 05:00:46;;;;;;;;;;;;;;;13.86;68.89;99923.35;105966;1268;107763;-90
2023/09/08 05:03:34;;;;;;;;;;;;;;;13.88;68.97;99926.02;105582;1271;96615;-91
2023/09/08 05:06:08;;;;;;;;;;;;;;;13.93;69.01;99925.85;105638;1267;96535;-90
2023/09/08 05:12:16;;;;;;;;;;;;;;;14.00;69.08;99923.02;105702;1265;97094;-90
2023/09/08 05:19:49;;;;;;;;;;;;;;;14.15;69.27;99925.67;105643;1274;96852;-90
2023/09/08 05:22:24;;;;;;;;;;;;;;;14.23;69.34;99928.66;106106;1269;95246;-91
2023/09/08 05:24:57;;;;;;;;;;;;;;;14.30;69.37;99932.23;106425;1271;109875;-90
2023/09/08 05:27:25;;;;;;;;;;;;;;;14.37;69.38;99936.02;105802;1265;96531;-90
2023/09/08 05:29:53;;;;;;;;;;;;;;;14.44;69.47;99933.21;105691;1265;107709;-90
2023/09/08 05:32:25;;;;;;;;;;;;;;;14.50;69.45;99932.02;105665;1265;96767;-89
2023/09/08 05:35:20;;;;;;;;;;;;;;;14.57;69.51;99929.77;105742;1265;96614;-90
2023/09/08 05:37:49;;;;;;;;;;;;;;;14.58;69.50;99930.36;105990;1267;107729;-90
2023/09/08 05:40:23;;;;;;;;;;;;;;;14.59;69.63;99929.55;105916;1269;96606;-90
2023/09/08 05:43:27;;;;;;;;;;;;;;;;;;;;;
2023/09/08 05:46:16;;;;;;;;;;;;;;;14.70;69.86;99927.50;105918;1272;98038;-90
2023/09/08 05:49:04;;;;;;;;;;;;;;;14.79;69.86;99923.28;105818;1265;97111;-90
2023/09/08 05:51:32;;;;;;;;;;;;;;;14.88;69.96;99924.05;105712;1269;109900;-90
2023/09/08 05:54:04;;;;;;;;;;;;;;;14.95;69.99;99925.59;105457;1271;96617;-91
2023/09/08 05:56:36;;;;;;;;;;;;;;;15.04;70.11;99926.59;105531;1269;107623;-90
2023/09/08 05:59:10;;;;;;;;;;;;;;;15.12;70.19;99928.40;105411;1271;96592;-90
2023/09/08 06:01:38;;;;;;;;;;;;;;;15.21;70.24;99931.83;105396;1273;96618;-90
2023/09/08 06:04:13;;;;;;;;;;;;;;;15.30;70.32;99933.98;105437;1270;109467;-90
2023/09/08 06:06:45;;;;;;;;;;;;;;;15.39;70.33;99934.20;105469;1269;97556;-90
2023/09/08 06:09:15;;;;;;;;;;;;;;;15.46;70.40;99936.48;105348;1269;107777;-91
2023/09/08 06:11:47;;;;;;;;;;;;;;;15.54;70.39;99932.64;105408;1270;96713;-90
2023/09/08 06:14:18;;;;;;;;;;;;;;;15.63;70.46;99938.22;105266;1271;97954;-89
2023/09/08 06:16:48;;;;;;;;;;;;;;;15.71;70.50;99936.69;105967;1269;109781;-89
2023/09/08 06:19:19;;;;;;;;;;;;;;;15.78;70.45;99940.03;106175;1270;98000;-90
2023/09/08 06:21:53;;;;;;;;;;;;;;;15.85;70.55;99938.96;105721;1270;107688;-90
2023/09/08 06:24:40;;;;;;;;;;;;;;;15.93;70.64;99937.61;105579;1266;96629;-89
2023/09/08 06:27:11;;;;;;;;;;;;;;;16.01;70.52;99937.73;105430;1281;96730;-90
2023/09/08 06:29:40;;;;;;;;;;;;;;;16.07;70.55;99939.89;105447;1273;109828;-90
2023/09/08 06:32:10;;;;;;;;;;;;;;;16.15;70.55;99937.85;105360;1267;96650;-90
2023/09/08 06:34:43;;;;;;;;;;;;;;;16.19;70.64;99938.52;105548;1269;107784;-90
2023/09/08 06:37:57;;;;;;;;;;;;;;;16.27;70.67;99944.73;105872;1269;96685;-91
2023/09/08 06:40:52;;;;;;;;;;;;;;;16.34;70.68;99946.46;105544;1269;96604;-89
2023/09/08 06:43:42;;;;;;;;;;;;;;;16.41;70.69;99942.65;105351;1269;110013;-89
2023/09/08 06:47:07;;;;;;;;;;;;;;;16.50;70.66;99946.23;105449;1270;96632;-89
2023/09/08 06:49:38;;;;;;;;;;;;;;;16.56;70.68;99939.30;105417;1267;107707;-89
2023/09/08 06:52:10;;;;;;;;;;;;;;;16.63;71.00;99938.89;105304;1270;96646;-89
2023/09/08 06:54:40;;;;;;;;;;;;;;;16.72;71.06;99939.90;105406;1270;96528;-89
2023/09/08 06:57:11;;;;;;;;;;;;;;;16.78;70.79;99935.28;105355;1271;110148;-90
2023/09/08 06:59:44;;;;;;;;;;;;;;;16.85;70.96;99935.05;105310;1271;96606;-90
2023/09/08 07:02:16;;;;;;;;;;;;;;;16.92;70.98;99935.31;105376;1268;107867;-90
2023/09/08 07:04:50;;;;;;;;;;;;;;;17.00;71.08;99931.69;105165;1266;97963;-90
2023/09/08 07:07:20;;;;;;;;;;;;;;;17.07;70.92;99934.65;105353;1272;97963;-90
2023/09/08 07:09:50;;;;;;;;;;;;;;;17.14;71.08;99933.52;105341;1267;110109;-90
2023/09/08 07:12:21;;;;;;;;;;;;;;;17.20;71.06;99934.75;105304;1269;97710;-89
2023/09/08 07:14:49;;;;;;;;;;;;;;;17.28;71.16;99931.61;105357;1269;109099;-88
2023/09/08 07:17:17;;;;;;;;;;;;;;;17.35;71.07;99929.94;105335;1270;96626;-90
2023/09/08 07:19:48;;;;;;;;;;;;;;;17.41;71.14;99929.55;105393;1267;96724;-89
2023/09/08 07:22:17;;;;;;;;;;;;;;;17.47;71.08;99929.36;105125;1271;108428;-90
2023/09/08 07:24:45;;;;;;;;;;;;;;;17.54;71.11;99929.33;105201;1270;96628;-90
2023/09/08 07:27:18;;;;;;;;;;;;;;;17.61;71.13;99929.27;105274;1270;107908;-89
2023/09/08 07:29:49;;;;;;;;;;;;;;;17.67;70.96;99928.02;105824;1270;97915;-90
2023/09/08 07:32:18;;;;;;;;;;;;;;;17.74;71.03;99924.72;105965;1270;95617;-89
2023/09/08 07:34:52;;;;;;;;;;;;;;;17.80;71.13;99921.63;105970;1267;109518;-90
2023/09/08 07:37:25;;;;;;;;;;;;;;;17.87;71.13;99920.69;105540;1267;96637;-89
2023/09/08 07:39:53;;;;;;;;;;;;;;;17.94;71.29;99918.40;105449;1267;107695;-90
2023/09/08 07:42:21;;;;;;;;;;;;;;;18.06;71.55;99923.48;105520;1267;96622;-90
2023/09/08 07:44:52;;;;;;;;;;;;;;;18.16;71.17;99919.19;105623;1270;97164;-89
2023/09/08 07:47:46;;;;;;;;;;;;;;;18.22;71.19;99921.33;105505;1278;108050;-91
2023/09/08 07:50:18;;;;;;;;;;;;;;;18.26;70.95;99920.94;105453;1272;96672;-90
2023/09/08 07:52:48;;;;;;;;;;;;;;;18.33;71.09;99922.48;105551;1270;107274;-91
2023/09/08 07:55:19;;;;;;;;;;;;;;;18.40;71.03;99926.02;105575;1266;96572;-90
2023/09/08 07:57:47;;;;;;;;;;;;;;;18.46;71.00;99923.81;105539;1266;96780;-90
2023/09/08 08:00:15;;;;;;;;;;;;;;;18.53;71.03;99920.86;105569;1271;109661;-90
2023/09/08 08:02:45;;;;;;;;;;;;;;;18.62;71.06;99921.08;105377;1267;96719;-88
2023/09/08 08:05:14;;;;;;;;;;;;;;;18.70;70.92;99919.48;105283;1278;106242;-88
2023/09/08 08:07:43;;;;;;;;;;;;;;;18.78;70.95;99918.77;105367;1267;96620;-88
2023/09/08 08:10:15;;;;;;;;;;;;;;;18.83;70.97;99923.13;105336;1272;98020;-90
2023/09/08 08:12:43;;;;;;;;;;;;;;;18.89;70.84;99925.64;105285;1273;110313;-89
2023/09/08 08:15:11;;;;;;;;;;;;;;;18.95;71.00;99927.56;105362;1269;96595;-89
2023/09/08 08:17:41;;;;;;;;;;;;;;;19.04;71.00;99926.76;105236;1273;107625;-90
2023/09/08 08:20:16;;;;;;;;;;;;;;;19.11;70.92;99926.63;105360;1271;96650;-89
2023/09/08 08:22:46;;;;;;;;;;;;;;;19.19;70.83;99929.96;105415;1266;96553;-89
2023/09/08 08:25:15;;;;;;;;;;;;;;;19.27;70.93;99925.86;105744;1269;111911;-89
2023/09/08 08:27:44;;;;;;;;;;;;;;;19.37;70.91;99920.20;105776;1269;96464;-89
2023/09/08 08:30:13;;;;;;;;;;;;;;;19.41;70.76;99918.56;106510;1269;106573;-90
2023/09/08 08:32:41;;;;;;;;;;;;;;;19.47;70.72;99916.05;106070;1267;96612;-89
2023/09/08 08:35:10;;;;;;;;;;;;;;;19.56;70.78;99913.73;105532;1267;96597;-89
2023/09/08 08:37:42;;;;;;;;;;;;;;;19.63;70.66;99913.07;105530;1267;109978;-90
2023/09/08 08:40:13;;;;;;;;;;;;;;;19.69;70.61;99916.40;105657;1269;96639;-90
2023/09/08 08:43:01;;;;;;;;;;;;;;;19.74;70.57;99918.83;105402;1267;107663;-89
2023/09/08 08:45:31;;;;;;;;;;;;;;;19.77;70.54;99916.88;105619;1271;96613;-90
2023/09/08 08:48:02;;;;;;;;;;;;;;;19.83;70.76;99917.83;105478;1270;96621;-89
2023/09/08 08:50:32;;;;;;;;;;;;;;;19.91;70.87;99916.47;105415;1267;109954;-91
2023/09/08 08:53:02;;;;;;;;;;;;;;;19.99;70.56;99914.86;105411;1269;97000;-90
2023/09/08 08:55:30;;;;;;;;;;;;;;;20.03;70.31;99913.52;105323;1270;106867;-89
2023/09/08 08:58:03;;;;;;;;;;;;;;;20.05;70.28;99905.55;105266;1273;96692;-90
2023/09/08 09:00:34;;;;;;;;;;;;;;;20.08;70.22;99908.31;105271;1267;97381;-93
2023/09/08 09:03:04;;;;;;;;;;;;;;;20.08;70.16;99905.08;105279;1270;110137;-90
2023/09/08 09:05:53;;;;;;;;;;;;;;;20.12;70.28;99901.12;105432;1266;96565;-91
2023/09/08 09:08:23;;;;;;;;;;;;;;;20.17;70.33;99899.70;105407;1273;107785;-90
2023/09/08 09:10:52;;;;;;;;;;;;;;;20.24;70.57;99900.80;105599;1267;96523;-90
2023/09/08 09:13:21;;;;;;;;;;;;;;;20.39;70.52;99894.48;105411;1267;95362;-90
2023/09/08 09:15:49;;;;;;;;;;;;;;;20.48;70.29;99898.42;105662;1267;108521;-91
2023/09/08 09:18:18;;;;;;;;;;;;;;;20.51;70.36;99894.14;105486;1267;97125;-90
2023/09/08 09:20:56;;;;;;;;;;;;;;;20.55;70.19;99890.11;105564;1270;107837;-90
2023/09/08 09:23:30;;;;;;;;;;;;;;;20.57;70.21;99889.11;105414;1267;96618;-88
2023/09/08 09:25:59;;;;;;;;;;;;;;;20.62;69.99;99888.13;105481;1267;96554;-89
2023/09/08 09:28:30;;;;;;;;;;;;;;;20.68;70.12;99883.75;105256;1270;109755;-90
2023/09/08 09:31:03;;;;;;;;;;;;;;;20.74;70.18;99879.44;105349;1267;97791;-89
2023/09/08 09:33:32;;;;;;;;;;;;;;;20.81;70.04;99876.34;105345;1270;108215;-91
2023/09/08 09:36:05;;;;;;;;;;;;;;;20.83;70.04;99875.27;105238;1273;97553;-90
2023/09/08 09:38:34;;;;;;;;;;;;;;;20.86;70.09;99879.31;105430;1273;96709;-90
2023/09/08 09:41:05;;;;;;;;;;;;;;;20.90;70.05;99877.20;105628;1267;110049;-91
2023/09/08 09:43:33;;;;;;;;;;;;;;;20.94;69.97;99875.15;106106;1271;96769;-91
2023/09/08 09:46:02;;;;;;;;;;;;;;;21.02;69.88;99874.27;106123;1267;106662;-90
2023/09/08 09:48:30;;;;;;;;;;;;;;;21.09;69.77;99869.14;105545;1267;96637;-91
2023/09/08 09:51:36;;;;;;;;;;;;;;;21.15;69.68;99877.42;105335;1273;98023;-91
2023/09/08 09:54:04;;;;;;;;;;;;;;;21.23;69.65;99871.34;105394;1267;109433;-91
2023/09/08 09:56:35;;;;;;;;;;;;;;;21.26;69.71;99868.67;105393;1270;96618;-89
2023/09/08 09:59:03;;;;;;;;;;;;;;;21.28;69.43;99869.55;105295;1267;107317;-91
2023/09/08 10:01:34;;;;;;;;;;;;;;;21.31;69.33;99866.02;105388;1267;97960;-89
2023/09/08 10:04:04;;;;;;;;;;;;;;;21.36;69.24;99869.38;105500;1270;96639;-90
2023/09/08 10:06:40;;;;;;;;;;;;;;;21.40;69.19;99862.46;105477;1273;108678;-90
2023/09/08 10:09:24;;;;;;;;;;;;;;;21.46;69.18;99865.52;105701;1267;95333;-91
2023/09/08 10:11:54;;;;;;;;;;;;;;;21.55;69.32;99862.17;105400;1267;107623;-90
2023/09/08 10:14:23;;;;;;;;;;;;;;;21.63;69.34;99860.23;105771;1270;96721;-90
2023/09/08 10:16:57;;;;;;;;;;;;;;;21.67;68.73;99858.99;105341;1270;96506;-90
2023/09/08 10:19:25;;;;;;;;;;;;;;;21.67;68.60;99858.21;105255;1273;109697;-90
2023/09/08 10:21:55;;;;;;;;;;;;;;;21.74;69.09;99856.92;105423;1267;96602;-90
2023/09/08 10:24:28;;;;;;;;;;;;;;;21.79;68.96;99851.15;105430;1269;107949;-89
2023/09/08 10:27:01;;;;;;;;;;;;;;;21.81;68.77;99852.26;105392;1273;96643;-91
2023/09/08 10:29:30;;;;;;;;;;;;;;;21.80;68.73;99851.13;105177;1267;463731;-91
2023/09/08 10:31:58;;;;;;;;;;;;;;;21.79;68.40;99854.10;105375;1267;110079;-90
2023/09/08 10:34:32;;;;;;;;;;;;;;;21.78;68.55;99853.52;105423;1273;96641;-91
2023/09/08 10:37:00;;;;;;;;;;;;;;;21.75;68.49;99849.45;105321;1274;107675;-90
2023/09/08 10:39:35;;;;;;;;;;;;;;;21.76;68.44;99848.81;105747;1267;96511;-94
2023/09/08 10:42:20;;;;;;;;;;;;;;;21.82;68.27;99848.67;106164;1267;96512;-90
2023/09/08 10:44:52;;;;;;;;;;;;;;;21.87;68.33;99844.16;105728;1273;109986;-91
2023/09/08 10:47:26;;;;;;;;;;;;;;;21.90;68.40;99837.90;105799;1270;96616;-89
2023/09/08 10:49:57;;;;;;;;;;;;;;;21.97;68.19;99834.66;105658;1270;107962;-92
2023/09/08 10:52:28;;;;;;;;;;;;;;;22.02;67.93;99831.70;105748;1268;97937;-92
2023/09/08 10:54:57;;;;;;;;;;;;;;;22.05;67.93;99829.65;105619;1267;96544;-92
2023/09/08 10:57:25;;;;;;;;;;;;;;;22.06;67.98;99826.33;105826;1272;109986;-92
2023/09/08 10:59:54;;;;;;;;;;;;;;;22.14;68.10;99829.70;105632;1267;96615;-90
2023/09/08 11:02:35;;;;;;;;;;;;;;;22.19;67.79;99825.10;105590;1274;108125;-90
2023/09/08 11:05:09;;;;;;;;;;;;;;;22.22;67.75;99823.42;105557;1273;97961;-91
2023/09/08 11:07:37;;;;;;;;;;;;;;;22.21;67.44;99821.04;105487;1267;96746;-91
2023/09/08 11:10:08;;;;;;;;;;;;;;;22.22;67.53;99822.00;105612;1273;110011;-91
2023/09/08 11:12:37;;;;;;;;;;;;;;;22.23;67.39;99820.31;105401;1274;96619;-91
2023/09/08 11:15:12;;;;;;;;;;;;;;;22.24;67.59;99821.52;105392;1273;107829;-91
2023/09/08 11:18:33;;;;;;;;;;;;;;;22.31;67.64;99815.23;105613;1267;96692;-90
2023/09/08 11:21:07;;;;;;;;;;;;;;;22.43;67.63;99813.73;105563;1267;96646;-89
2023/09/08 11:23:36;;;;;;;;;;;;;;;22.51;67.30;99812.84;105811;1267;109815;-93
2023/09/08 11:26:08;;;;;;;;;;;;;;;22.56;67.49;99810.13;105884;1267;96637;-93
2023/09/08 11:28:38;;;;;;;;;;;;;;;22.59;67.20;99811.12;105872;1270;107521;-93
2023/09/08 11:31:07;;;;;;;;;;;;;;;22.60;67.00;99804.77;105846;1267;96637;-92
2023/09/08 11:33:54;;;;;;;;;;;;;;;;;;;;;
2023/09/08 11:37:13;;;;;;;;;;;;;;;22.59;66.76;99810.41;105572;1267;110276;-90
2023/09/08 11:39:42;;;;;;;;;;;;;;;22.59;66.91;99810.33;105629;1271;96662;-90
2023/09/08 11:42:13;;;;;;;;;;;;;;;22.59;66.75;99806.52;105535;1267;108945;-90
2023/09/08 11:44:43;;;;;;;;;;;;;;;22.62;66.49;99802.10;105634;1267;96643;-91
2023/09/08 11:47:12;;;;;;;;;;;;;;;22.64;66.50;99799.38;105431;1272;96524;-90
2023/09/08 11:49:40;;;;;;;;;;;;;;;22.67;66.49;99798.24;105477;1273;110048;-90
2023/09/08 11:52:09;;;;;;;;;;;;;;;22.71;66.44;99795.15;105928;1270;96675;-90
2023/09/08 11:54:38;;;;;;;;;;;;;;;22.71;66.52;99793.49;106038;1267;107642;-91
2023/09/08 11:57:44;;;;;;;;;;;;;;;22.74;66.44;99791.86;105968;1268;97437;-91
2023/09/08 12:00:17;;;;;;;;;;;;;;;22.78;66.29;99788.39;105606;1270;96625;-90
2023/09/08 12:03:15;;;;;;;;;;;;;;;22.78;66.15;99784.35;105323;1270;109910;-91
2023/09/08 12:06:06;;;;;;;;;;;;;;;22.80;66.28;99782.18;105596;1273;97524;-91
2023/09/08 12:08:35;;;;;;;;;;;;;;;22.85;66.13;99774.57;105716;1267;106698;-91
2023/09/08 12:11:04;;;;;;;;;;;;;;;22.87;65.90;99771.65;105640;1266;96429;-92
2023/09/08 12:13:34;;;;;;;;;;;;;;;22.86;65.83;99770.63;105776;1270;96613;-92
2023/09/08 12:19:31;;;;;;;;;;;;;;;22.91;65.66;99768.11;105822;1267;96702;-91
2023/09/08 12:22:05;;;;;;;;;;;;;;;22.89;65.42;99762.86;105780;1267;107769;-92
2023/09/08 12:24:52;;;;;;;;;;;;;;;22.88;65.40;99758.33;105756;1269;96624;-91
2023/09/08 12:27:20;;;;;;;;;;;;;;;22.89;65.60;99763.13;105742;1270;96557;-92
2023/09/08 12:30:04;;;;;;;;;;;;;;;22.89;65.36;99758.89;105856;1267;110037;-92
2023/09/08 12:32:56;;;;;;;;;;;;;;;22.92;65.38;99760.95;105928;1273;96625;-93
2023/09/08 12:35:31;;;;;;;;;;;;;;;22.95;65.53;99756.60;105835;1270;107566;-90
2023/09/08 12:38:07;;;;;;;;;;;;;;;22.99;65.24;99755.23;105929;1273;96830;-91
2023/09/08 12:41:02;;;;;;;;;;;;;;;23.05;65.32;99751.70;105885;1270;96424;-92
2023/09/08 12:44:11;;;;;;;;;;;;;;;23.10;64.90;99748.42;105811;1267;108701;-91
2023/09/08 12:46:39;;;;;;;;;;;;;;;23.13;64.91;99751.84;106025;1272;96618;-91
2023/09/08 12:49:14;;;;;;;;;;;;;;;23.15;65.20;99753.05;105962;1272;107579;-91
2023/09/08 12:51:44;;;;;;;;;;;;;;;23.19;65.05;99748.23;106318;1268;96613;-93
2023/09/08 12:54:13;;;;;;;;;;;;;;;23.21;64.75;99740.98;106480;1266;96507;-91
2023/09/08 12:57:05;;;;;;;;;;;;;;;23.20;64.68;99737.13;106239;1268;110444;-91
2023/09/08 12:59:34;;;;;;;;;;;;;;;23.21;64.75;99741.37;106065;1270;96643;-90
2023/09/08 13:02:04;;;;;;;;;;;;;;;23.25;64.89;99742.59;105846;1267;107303;-92
2023/09/08 13:04:32;;;;;;;;;;;;;;;23.30;64.59;99738.97;105856;1267;96594;-90
2023/09/08 13:07:02;;;;;;;;;;;;;;;23.34;64.82;99740.06;105790;1267;96641;-89
2023/09/08 13:09:54;;;;;;;;;;;;;;;23.37;64.46;99735.64;105829;1272;109590;-91
2023/09/08 13:12:23;;;;;;;;;;;;;;;23.36;64.55;99734.05;105807;1267;97990;-91
2023/09/08 13:14:51;;;;;;;;;;;;;;;23.39;64.53;99729.76;105752;1267;107350;-93
2023/09/08 13:17:30;;;;;;;;;;;;;;;;;;;;;
2023/09/08 13:20:30;;;;;;;;;;;;;;;23.39;64.08;99727.77;105683;1267;96585;-92
2023/09/08 13:22:58;;;;;;;;;;;;;;;23.36;64.21;99723.05;105738;1267;111175;-91
2023/09/08 13:25:48;;;;;;;;;;;;;;;23.34;64.14;99723.98;105899;1270;96618;-91
2023/09/08 13:28:18;;;;;;;;;;;;;;;23.35;63.95;99720.98;105695;1267;107740;-91
2023/09/08 13:30:48;;;;;;;;;;;;;;;23.34;63.89;99723.23;105586;1272;96544;-91
2023/09/08 13:33:16;;;;;;;;;;;;;;;23.37;63.96;99718.74;105642;1267;96649;-91
2023/09/08 13:35:45;;;;;;;;;;;;;;;23.41;63.72;99717.93;105713;1267;109930;-89
2023/09/08 13:38:13;;;;;;;;;;;;;;;23.41;63.61;99712.71;105711;1267;96593;-91
2023/09/08 13:40:42;;;;;;;;;;;;;;;23.40;63.50;99714.66;105612;1267;107691;-91
2023/09/08 13:43:15;;;;;;;;;;;;;;;23.39;63.69;99714.90;105705;1266;96754;-91
2023/09/08 13:45:45;;;;;;;;;;;;;;;23.44;63.63;99710.77;105775;1268;96422;-92
2023/09/08 13:48:54;;;;;;;;;;;;;;;23.45;63.31;99707.90;105395;1267;111383;-91
2023/09/08 13:51:24;;;;;;;;;;;;;;;23.46;63.42;99704.15;105592;1267;96606;-90
2023/09/08 13:53:55;;;;;;;;;;;;;;;23.47;63.20;99703.34;105708;1267;107780;-89
2023/09/08 13:56:26;;;;;;;;;;;;;;;23.46;63.19;99702.11;105654;1267;100265;-90
2023/09/08 13:58:54;;;;;;;;;;;;;;;23.45;63.09;99697.90;105772;1267;96547;-90
2023/09/08 14:01:24;;;;;;;;;;;;;;;23.46;62.75;99696.65;105611;1270;109100;-88
2023/09/08 14:07:00;;;;;;;;;;;;;;;23.46;63.10;99693.05;105961;1272;106340;-91
2023/09/08 14:09:49;;;;;;;;;;;;;;;23.48;62.68;99688.66;105716;1267;96550;-91
2023/09/08 14:12:24;;;;;;;;;;;;;;;23.50;62.77;99690.08;105702;1268;96561;-92
2023/09/08 14:15:20;;;;;;;;;;;;;;;23.53;62.73;99689.92;105431;1267;109928;-90
2023/09/08 14:17:48;;;;;;;;;;;;;;;23.55;62.62;99689.87;105491;1270;96648;-91
2023/09/08 14:20:16;;;;;;;;;;;;;;;23.55;62.72;99686.86;105362;1268;107839;-91
2023/09/08 14:22:46;;;;;;;;;;;;;;;23.55;62.44;99690.48;105221;1267;97897;-90
2023/09/08 14:25:16;;;;;;;;;;;;;;;23.55;62.56;99686.44;105332;1273;96624;-90
2023/09/08 14:27:44;;;;;;;;;;;;;;;23.57;62.52;99684.94;105260;1269;110038;-90
2023/09/08 14:30:12;;;;;;;;;;;;;;;23.57;62.60;99682.46;105327;1268;96617;-90
2023/09/08 14:32:41;;;;;;;;;;;;;;;23.56;62.43;99681.52;105252;1270;107640;-91
2023/09/08 14:35:15;;;;;;;;;;;;;;;23.55;62.35;99679.59;105371;1273;96605;-92
2023/09/08 14:37:46;;;;;;;;;;;;;;;23.54;62.27;99681.33;105694;1268;96533;-90
2023/09/08 14:40:15;;;;;;;;;;;;;;;23.54;62.25;99677.33;105282;1273;110403;-90
2023/09/08 14:42:43;;;;;;;;;;;;;;;23.52;62.04;99677.01;105294;1267;96728;-91
2023/09/08 14:45:18;;;;;;;;;;;;;;;23.51;62.13;99673.75;105467;1272;107709;-90
2023/09/08 14:47:46;;;;;;;;;;;;;;;23.48;62.03;99671.88;105433;1271;96653;-90
2023/09/08 14:50:20;;;;;;;;;;;;;;;23.44;61.93;99669.08;105318;1270;96654;-89
2023/09/08 14:53:28;;;;;;;;;;;;;;;23.39;61.89;99664.11;105382;1267;109839;-90
2023/09/08 14:59:44;;;;;;;;;;;;;;;23.35;61.71;99661.45;105561;1267;109103;-91
2023/09/08 15:02:14;;;;;;;;;;;;;;;23.34;61.76;99659.22;105983;1267;96704;-92
2023/09/08 15:04:42;;;;;;;;;;;;;;;23.33;61.62;99654.53;106016;1267;96743;-91
2023/09/08 15:07:10;;;;;;;;;;;;;;;23.34;61.51;99656.88;105918;1267;110068;-91
2023/09/08 15:09:38;;;;;;;;;;;;;;;23.33;61.65;99657.69;105561;1267;97600;-91
2023/09/08 15:12:06;;;;;;;;;;;;;;;23.33;61.59;99653.64;105440;1273;106271;-90
2023/09/08 15:14:37;;;;;;;;;;;;;;;23.34;61.30;99649.61;105299;1268;96711;-90
2023/09/08 15:17:06;;;;;;;;;;;;;;;23.34;61.55;99649.27;105249;1273;96557;-91
2023/09/08 15:19:34;;;;;;;;;;;;;;;23.34;61.51;99646.33;105277;1270;109947;-90
2023/09/08 15:22:04;;;;;;;;;;;;;;;23.34;61.45;99641.61;105427;1267;97007;-90
2023/09/08 15:24:36;;;;;;;;;;;;;;;23.35;61.30;99639.19;105598;1260;107619;-91
2023/09/08 15:27:05;;;;;;;;;;;;;;;23.34;61.34;99639.09;105499;1268;97061;-92
2023/09/08 15:29:33;;;;;;;;;;;;;;;23.32;61.35;99640.19;105475;1268;96592;-90
2023/09/08 15:32:03;;;;;;;;;;;;;;;23.30;61.38;99637.02;105504;1273;110658;-89
2023/09/08 15:34:31;;;;;;;;;;;;;;;23.27;61.27;99636.73;105491;1272;96597;-92
2023/09/08 15:37:00;;;;;;;;;;;;;;;23.24;61.14;99632.89;105539;1267;109672;-91
2023/09/08 15:39:29;;;;;;;;;;;;;;;23.20;61.19;99631.34;105372;1267;97558;-93
2023/09/08 15:41:58;;;;;;;;;;;;;;;23.17;61.12;99627.36;105464;1267;96609;-92
2023/09/08 15:44:26;;;;;;;;;;;;;;;23.13;61.28;99631.79;105398;1266;110971;-92
2023/09/08 15:46:54;;;;;;;;;;;;;;;23.11;61.16;99628.00;105458;1270;97173;-92
2023/09/08 15:49:22;;;;;;;;;;;;;;;23.08;61.14;99625.34;105315;1267;107236;-92
2023/09/08 15:51:50;;;;;;;;;;;;;;;23.05;61.09;99621.41;105399;1267;96602;-89
2023/09/08 15:54:57;;;;;;;;;;;;;;;23.03;60.97;99620.92;105410;1272;96714;-92
2023/09/08 15:57:29;;;;;;;;;;;;;;;23.01;61.00;99619.80;105486;1272;109461;-92
2023/09/08 15:59:57;;;;;;;;;;;;;;;22.99;60.87;99617.88;105422;1273;96635;-92
2023/09/08 16:02:25;;;;;;;;;;;;;;;22.95;60.99;99617.42;105250;1270;108135;-94
2023/09/08 16:04:56;;;;;;;;;;;;;;;22.90;61.00;99617.17;105308;1267;96650;-90
2023/09/08 16:07:24;;;;;;;;;;;;;;;22.84;61.10;99612.13;105257;1268;96513;-90
2023/09/08 16:09:52;;;;;;;;;;;;;;;22.78;61.22;99609.21;105206;1270;109408;-91
2023/09/08 16:12:22;;;;;;;;;;;;;;;22.68;61.21;99606.55;105406;1281;97957;-92
2023/09/08 16:14:51;;;;;;;;;;;;;;;22.58;61.38;99604.45;105915;1267;106415;-90
2023/09/08 16:17:19;;;;;;;;;;;;;;;22.49;61.25;99603.11;105828;1270;96580;-91
2023/09/08 16:19:47;;;;;;;;;;;;;;;22.40;61.45;99604.48;105540;1267;96592;-91
2023/09/08 16:22:15;;;;;;;;;;;;;;;22.31;61.41;99602.92;105376;1270;111037;-91
2023/09/08 16:24:44;;;;;;;;;;;;;;;22.23;61.55;99600.80;105400;1273;96615;-90
2023/09/08 16:27:13;;;;;;;;;;;;;;;22.12;61.56;99600.67;105308;1270;107346;-90
2023/09/08 16:29:42;;;;;;;;;;;;;;;22.03;61.79;99602.30;105417;1270;96637;-91
2023/09/08 16:32:11;;;;;;;;;;;;;;;21.94;61.93;99599.59;105464;1268;96727;-91
2023/09/08 16:34:39;;;;;;;;;;;;;;;21.84;61.91;99599.19;105534;1270;109951;-90
2023/09/08 16:37:07;;;;;;;;;;;;;;;21.76;61.98;99599.05;105452;1273;96610;-90
2023/09/08 16:39:36;;;;;;;;;;;;;;;21.66;61.86;99600.40;105655;1270;107764;-90
2023/09/08 16:42:05;;;;;;;;;;;;;;;21.57;61.89;99600.72;105616;1272;96652;-90
2023/09/08 16:44:33;;;;;;;;;;;;;;;21.47;61.98;99607.89;105750;1267;96609;-91
2023/09/08 16:47:02;;;;;;;;;;;;;;;21.38;61.95;99605.84;105705;1271;109978;-90
2023/09/08 16:49:31;;;;;;;;;;;;;;;21.29;62.09;99606.98;105417;1267;97566;-90
2023/09/08 16:52:00;;;;;;;;;;;;;;;21.20;62.11;99608.09;105314;1270;107801;-89
2023/09/08 16:54:29;;;;;;;;;;;;;;;21.10;62.30;99607.36;105364;1272;96726;-89
2023/09/08 16:56:58;;;;;;;;;;;;;;;21.01;62.28;99612.38;105300;1273;96650;-90
2023/09/08 16:59:26;;;;;;;;;;;;;;;20.91;62.33;99609.27;105324;1273;108647;-90
2023/09/08 17:01:58;;;;;;;;;;;;;;;20.82;62.39;99614.77;105442;1276;96650;-90
2023/09/08 17:04:27;;;;;;;;;;;;;;;20.71;62.37;99615.70;105720;1268;106455;-90
2023/09/08 17:06:58;;;;;;;;;;;;;;;20.62;62.27;99615.39;105561;1268;96605;-90
2023/09/08 17:09:27;;;;;;;;;;;;;;;20.51;62.43;99615.06;105551;1267;96556;-90
2023/09/08 17:11:59;;;;;;;;;;;;;;;20.42;62.45;99616.80;105832;1268;109641;-91
2023/09/08 17:14:30;;;;;;;;;;;;;;;20.33;62.47;99620.98;106200;1272;96679;-91
2023/09/08 22:01:22;;;;;;;;;;;;;;;16.16;66.69;99636.23;108177;1263;107264;31
